Flight Track Log - Related Links

Times and Time Zones

All times are in EDT time to prevent confusion due to time zone crossing. See the UAL685 flight status page for this flight to view local times or setup timezone preferences in your user account.

Time Position Orientation Groundspeed Altitude Reporting Facility
EDT Latitude Longitude Course Direction KTS MPH feet Rate Location/Type
Sat 09:30:32 AM 40.7167 -74.1500 270° West 167 192 1,600  Level New York TRACON
Sat 09:32:53 AM 40.7906 -74.2903 305° West 229 264 7,600 2,495 Climbing New York Center
Sat 09:33:00 AM 41.0055 -74.5403 316° Northwest  Level FlightAware Approximate
Sat 09:33:54 AM 40.8425 -74.3561 316° Northwest 243 280 10,000  Level New York Center
Sat 09:34:00 AM 41.0833 -74.6404 316° Northwest  Level FlightAware Approximate
Sat 09:34:53 AM 40.9092 -74.4311 320° Northwest 297 342 11,300  Level New York Center
Sat 09:35:00 AM 41.1466 -74.7397 294° West  Level FlightAware Approximate
Sat 09:35:52 AM 40.9856 -74.5178 319° Northwest 342 394 12,700  Level New York Center
Sat 09:36:00 AM 41.2000 -74.8559 270° West  Level FlightAware Approximate
Sat 09:36:53 AM 41.0678 -74.6131 319° Northwest 393 452 14,900  Level New York Center
Sat 09:37:53 AM 41.1458 -74.7139 316° Northwest 399 459 16,700 1,587 Climbing New York Center
Sat 09:38:54 AM 41.2017 -74.8467 299° West 406 467 18,100 1,339 Climbing New York Center
Sat 09:39:54 AM 41.2558 -74.9658 301° West 416 479 19,400 1,462 Climbing New York Center
Sat 09:40:53 AM 41.3133 -75.1047 299° West 422 486 21,000 1,450 Climbing New York Center
Sat 09:41:54 AM 41.3728 -75.2442 300° West 429 494 22,300 1,339 Climbing New York Center
Sat 09:42:54 AM 41.4317 -75.3864 299° West 429 494 23,700 1,220 Climbing New York Center
Sat 09:43:52 AM 41.4906 -75.5289 299° West 434 499 24,700 1,068 Climbing New York Center
Sat 09:44:52 AM 41.5342 -75.6872 290° West 442 509 25,800 1,289 Climbing New York Center
Sat 09:45:53 AM 41.5814 -75.8514 291° West 442 509 27,300 1,377 Climbing New York Center
Sat 09:46:54 AM 41.6250 -75.9992 292° West 437 503 28,600 1,160 Climbing New York Center
Sat 09:47:52 AM 41.6661 -76.1522 290° West 437 503 29,600 1,068 Climbing New York Center
Sat 09:48:52 AM 41.7092 -76.3031 291° West 442 509 30,700 1,190 Climbing New York Center
Sat 09:49:53 AM 41.7500 -76.4508 290° West 437 503 32,000 1,131 Climbing New York Center
Sat 09:50:54 AM 41.7853 -76.5819 290° West 431 496 33,000 992 Climbing New York Center
Sat 09:51:54 AM 41.8261 -76.7275 291° West 426 490 34,000 496 Climbing New York Center
Sat 09:52:55 AM 41.8667 -76.8703 291° West 421 484 34,000  Level New York Center
Sat 09:53:21 AM 41.8903 -76.9594 290° West 420 483 34,000  Level Cleveland Center
Sat 09:54:21 AM 41.9281 -77.1025 290° West 420 483 34,000  Level Cleveland Center
Sat 09:55:21 AM 41.9700 -77.2511 291° West 420 483 34,000  Level Cleveland Center
Sat 09:56:21 AM 42.0075 -77.3944 289° West 420 483 34,000  Level Cleveland Center
Sat 09:57:21 AM 42.0469 -77.5408 290° West 420 483 34,000  Level Cleveland Center
Sat 09:58:21 AM 42.0839 -77.6844 289° West 420 483 34,000  Level Cleveland Center
Sat 09:59:21 AM 42.1250 -77.8311 291° West 420 483 34,000  Level Cleveland Center
Sat 10:00:21 AM 42.1619 -77.9781 289° West 420 483 34,000  Level Cleveland Center
Sat 10:01:21 AM 42.1986 -78.1250 289° West 420 483 34,000  Level Cleveland Center
Sat 10:02:21 AM 42.2369 -78.2722 289° West 420 483 34,000  Level Cleveland Center
Sat 10:03:21 AM 42.2683 -78.3889 290° West 420 483 34,000  Level Cleveland Center
Sat 10:04:21 AM 42.3089 -78.5475 289° West 420 483 34,000  Level Cleveland Center
Sat 10:05:21 AM 42.3469 -78.6953 289° West 420 483 34,000  Level Cleveland Center
Sat 10:06:21 AM 42.3847 -78.8431 289° West 420 483 34,000  Level Cleveland Center
Sat 10:07:21 AM 42.4200 -78.9856 289° West 415 478 34,000  Level Cleveland Center
Sat 10:08:21 AM 42.4553 -79.1339 288° West 415 478 34,000  Level Cleveland Center
Sat 10:09:21 AM 42.4903 -79.2822 288° West 415 478 34,000  Level Cleveland Center
Sat 10:10:21 AM 42.5025 -79.4369 276° West 415 478 34,000  Level Cleveland Center
Sat 10:11:21 AM 42.5081 -79.5947 273° West 415 478 34,000  Level Cleveland Center
Sat 10:12:21 AM 42.5136 -79.7494 273° West 415 478 34,000  Level Cleveland Center
Sat 10:13:21 AM 42.5186 -79.9072 273° West 420 483 34,000  Level Cleveland Center
Sat 10:14:21 AM 42.5258 -80.0789 273° West 420 483 34,000  Level Cleveland Center
Sat 10:15:21 AM 42.5347 -80.2394 274° West 420 483 34,000  Level Cleveland Center
Sat 10:16:21 AM 42.5414 -80.3944 273° West 420 483 34,000  Level Cleveland Center
Sat 10:17:21 AM 42.5478 -80.5522 273° West 420 483 34,000  Level Cleveland Center
Sat 10:18:21 AM 42.5519 -80.7072 272° West 425 489 34,000  Level Cleveland Center
Sat 10:19:21 AM 42.5600 -80.8678 274° West 419 482 34,000  Level Cleveland Center
Sat 10:20:21 AM 42.5656 -81.0258 273° West 424 488 34,000  Level Cleveland Center
Sat 10:21:21 AM 42.5711 -81.1836 273° West 424 488 34,000  Level Cleveland Center
Sat 10:22:21 AM 42.5744 -81.3417 272° West 418 481 34,000  Level Cleveland Center
Sat 10:23:21 AM 42.5919 -81.4969 279° West 423 487 34,000  Level Cleveland Center
Sat 10:24:21 AM 42.6139 -81.6328 282° West 418 481 34,000  Level Cleveland Center
Sat 10:25:21 AM 42.6414 -81.7969 283° West 411 473 34,000  Level Cleveland Center
Sat 10:26:21 AM 42.6689 -81.9500 284° West 411 473 34,000  Level Cleveland Center
Sat 10:27:21 AM 42.6961 -82.1058 283° West 416 479 34,000  Level Cleveland Center
Sat 10:28:21 AM 42.7231 -82.2592 284° West 416 479 34,000  Level Cleveland Center
Sat 10:29:21 AM 42.7500 -82.4153 283° West 416 479 34,000  Level Cleveland Center
Sat 10:30:21 AM 42.7725 -82.5575 282° West 416 479 34,000  Level Cleveland Center
Sat 10:31:21 AM 42.7969 -82.7111 282° West 416 479 34,000  Level Cleveland Center
Sat 10:32:21 AM 42.8253 -82.8678 284° West 416 479 34,000  Level Cleveland Center
Sat 10:33:21 AM 42.8511 -83.0244 283° West 416 479 34,000 400 Level Cleveland Center
Sat 10:34:21 AM 42.8769 -83.1814 283° West 421 484 34,800 800 Climbing Cleveland Center
Sat 10:35:21 AM 42.9006 -83.3353 282° West 421 484 35,600 600 Climbing Cleveland Center
Sat 10:36:21 AM 42.9236 -83.4922 281° West 421 484 36,000 200 Climbing Cleveland Center
Sat 10:37:21 AM 42.9489 -83.6494 282° West 421 484 36,000  Level Cleveland Center
Sat 10:38:21 AM 42.9697 -83.8039 280° West 421 484 36,000  Level Cleveland Center
Sat 10:39:21 AM 42.9858 -83.9636 278° West 415 478 36,000  Level Cleveland Center
Sat 10:40:21 AM 43.0019 -84.1236 278° West 420 483 36,000  Level Cleveland Center
Sat 10:42:21 AM 43.0353 -84.4475 278° West 426 490 36,000  Level Chicago Center
Sat 10:43:23 AM 43.0506 -84.6089 277° West 428 493 36,000  Level Chicago Center
Sat 10:44:24 AM 43.0667 -84.7706 278° West 429 494 36,000  Level Chicago Center
Sat 10:45:26 AM 43.0819 -84.9322 277° West 431 496 36,000  Level Chicago Center
Sat 10:46:28 AM 43.0967 -85.0939 277° West 431 496 36,000  Level Chicago Center
Sat 10:47:30 AM 43.1153 -85.2881 278° West 431 496 36,000  Level Chicago Center
Sat 10:48:31 AM 43.1294 -85.4497 277° West 430 495 36,000  Level Chicago Center
Sat 10:49:33 AM 43.1431 -85.6114 277° West 431 496 36,000  Level Chicago Center
Sat 10:50:35 AM 43.1575 -85.7714 277° West 430 495 36,000  Level Chicago Center
Sat 10:51:36 AM 43.1708 -85.9311 277° West 431 496 36,000  Level Chicago Center
Sat 10:52:38 AM 43.1869 -86.1231 277° West 434 499 36,000  Level Chicago Center
Sat 10:53:40 AM 43.2000 -86.2856 276° West 435 501 36,000  Level Chicago Center
Sat 10:54:42 AM 43.2158 -86.4456 278° West 430 495 36,000  Level Chicago Center
Sat 10:55:44 AM 43.2314 -86.6086 278° West 433 498 36,000  Level Chicago Center
Sat 10:56:45 AM 43.2472 -86.7744 278° West 438 504 36,000  Level Chicago Center
Sat 10:57:47 AM 43.2622 -86.9389 277° West 439 505 36,000  Level Chicago Center
Sat 10:58:49 AM 43.2814 -87.1358 278° West 437 503 36,000  Level Chicago Center
Sat 10:59:50 AM 43.2956 -87.3017 277° West 441 507 36,000  Level Chicago Center
Sat 11:01:26 AM 43.3172 -87.5683 276° West 441 507 36,000  Level Minneapolis Center
Sat 11:01:54 AM 43.3250 -87.6531 277° West 443 510 36,000  Level Chicago Center
Sat 11:02:56 AM 43.3392 -87.8222 277° West 445 512 36,000  Level Chicago Center
Sat 11:03:57 AM 43.3533 -87.9914 277° West 444 511 36,000 -49 Level Chicago Center
Sat 11:04:59 AM 43.3667 -88.1611 276° West 445 512 35,900  Descending Chicago Center
Sat 11:06:01 AM 43.3794 -88.3297 276° West 442 509 36,000  Climbing Chicago Center
Sat 11:07:02 AM 43.3936 -88.5006 277° West 450 518 35,900  Descending Chicago Center
Sat 11:08:04 AM 43.4172 -88.6819 280° West 451 519 36,000 48 Climbing Chicago Center
Sat 11:09:06 AM 43.4633 -88.8422 292° West 448 516 36,000  Level Chicago Center
Sat 11:10:07 AM 43.5081 -89.0039 291° West 450 518 36,000  Level Chicago Center
Sat 11:11:09 AM 43.5528 -89.1647 291° West 450 518 36,000  Level Chicago Center
Sat 11:12:11 AM 43.6056 -89.3528 291° West 451 519 36,000  Level Chicago Center
Sat 11:12:43 AM 43.6272 -89.4322 291° West 449 517 36,000  Level Minneapolis Center
Sat 11:13:44 AM 43.6717 -89.5953 291° West 451 519 36,000  Level Minneapolis Center
Sat 11:14:46 AM 43.7164 -89.7578 291° West 452 520 36,000  Level Minneapolis Center
Sat 11:15:47 AM 43.7608 -89.9175 291° West 448 516 36,000  Level Minneapolis Center
Sat 11:16:49 AM 43.8044 -90.0794 291° West 448 516 36,000  Level Minneapolis Center
Sat 11:17:50 AM 43.8469 -90.2422 290° West 449 517 36,000  Level Minneapolis Center
Sat 11:18:52 AM 43.8994 -90.4314 291° West 450 518 36,000  Level Minneapolis Center
Sat 11:19:53 AM 43.9328 -90.5656 289° West 449 517 36,000  Level Minneapolis Center
Sat 11:20:55 AM 43.9853 -90.7578 291° West 450 518 36,000  Level Minneapolis Center
Sat 11:21:56 AM 44.0281 -90.9197 290° West 451 519 36,000  Level Minneapolis Center
Sat 11:22:58 AM 44.0706 -91.0833 290° West 454 522 36,000  Level Minneapolis Center
Sat 11:23:59 AM 44.1128 -91.2450 290° West 450 518 36,000  Level Minneapolis Center
Sat 11:25:00 AM 44.1614 -91.4314 290° West 452 520 36,000  Level Minneapolis Center
Sat 11:26:02 AM 44.2031 -91.5964 289° West 453 521 36,000  Level Minneapolis Center
Sat 11:27:03 AM 44.2447 -91.7597 290° West 451 519 36,000  Level Minneapolis Center
Sat 11:28:05 AM 44.2861 -91.9247 289° West 451 519 36,000  Level Minneapolis Center
Sat 11:29:07 AM 44.3267 -92.0883 289° West 450 518 36,000  Level Minneapolis Center
Sat 11:30:08 AM 44.3667 -92.2522 289° West 447 514 36,000  Level Minneapolis Center
Sat 11:31:10 AM 44.4067 -92.4172 289° West 448 516 36,000  Level Minneapolis Center
Sat 11:32:11 AM 44.4544 -92.6128 289° West 445 512 36,000  Level Minneapolis Center
Sat 11:33:13 AM 44.4933 -92.7725 289° West 438 504 36,000  Level Minneapolis Center
Sat 11:34:14 AM 44.5339 -92.9381 289° West 443 510 36,000  Level Minneapolis Center
Sat 11:35:16 AM 44.5728 -93.1011 289° West 443 510 36,000  Level Minneapolis Center
Sat 11:36:18 AM 44.6122 -93.2661 289° West 439 505 36,000  Level Minneapolis Center
Sat 11:37:19 AM 44.6511 -93.4331 288° West 440 506 36,000  Level Minneapolis Center
Sat 11:38:21 AM 44.6897 -93.5972 288° West 440 506 36,000  Level Minneapolis Center
Sat 11:39:22 AM 44.7278 -93.7589 288° West 436 502 36,000  Level Minneapolis Center
Sat 11:40:24 AM 44.7650 -93.9214 288° West 437 503 36,000  Level Minneapolis Center
Sat 11:41:38 AM 44.8022 -94.0822 288° West 435 501 36,000  Level Minneapolis Center
Sat 11:42:40 AM 44.8542 -94.3103 288° West 438 504 36,000  Level Minneapolis Center
Sat 11:43:41 AM 44.8892 -94.4719 287° West 434 499 36,000  Level Minneapolis Center
Sat 11:44:43 AM 44.9250 -94.6331 287° West 431 496 36,000  Level Minneapolis Center
Sat 11:45:45 AM 44.9614 -94.8011 287° West 431 496 36,000  Level Minneapolis Center
Sat 11:46:46 AM 44.9975 -94.9614 288° West 430 495 36,000  Level Minneapolis Center
Sat 11:47:48 AM 45.0319 -95.1214 287° West 429 494 36,000  Level Minneapolis Center
Sat 11:48:50 AM 45.0658 -95.2811 287° West 428 493 36,000  Level Minneapolis Center
Sat 11:49:51 AM 45.1067 -95.4728 287° West 426 490 36,000  Level Minneapolis Center
Sat 11:50:53 AM 45.1417 -95.6328 287° West 427 491 36,000  Level Minneapolis Center
Sat 11:51:55 AM 45.1747 -95.7922 286° West 426 490 36,000  Level Minneapolis Center
Sat 11:52:56 AM 45.2081 -95.9506 287° West 423 487 36,000  Level Minneapolis Center
Sat 11:53:58 AM 45.2411 -96.1089 287° West 422 486 36,000  Level Minneapolis Center
Sat 11:55:12 AM 45.2739 -96.2675 286° West 422 486 36,000  Level Minneapolis Center
Sat 11:56:13 AM 45.3053 -96.4264 286° West 420 483 36,000  Level Minneapolis Center
Sat 11:57:15 AM 45.3506 -96.6475 286° West 419 482 36,000  Level Minneapolis Center
Sat 11:58:17 AM 45.3817 -96.8036 286° West 416 479 36,000  Level Minneapolis Center
Sat 11:59:19 AM 45.4133 -96.9603 286° West 414 476 36,000  Level Minneapolis Center
Sat 12:00:20 PM 45.4439 -97.1194 285° West 416 479 36,000  Level Minneapolis Center
Sat 12:01:22 PM 45.4750 -97.2767 286° West 416 479 36,000  Level Minneapolis Center
Sat 12:02:24 PM 45.5058 -97.4358 286° West 418 481 36,000  Level Minneapolis Center
Sat 12:03:25 PM 45.5422 -97.6253 285° West 416 479 36,000  Level Minneapolis Center
Sat 12:04:27 PM 45.5719 -97.7822 285° West 413 475 36,000  Level Minneapolis Center
Sat 12:05:41 PM 45.6075 -97.9689 285° West 410 472 36,000  Level Minneapolis Center
Sat 12:06:43 PM 45.6381 -98.1306 285° West 411 473 36,000  Level Minneapolis Center
Sat 12:07:44 PM 45.6678 -98.2872 285° West 411 473 36,000  Level Minneapolis Center
Sat 12:08:46 PM 45.6972 -98.4447 285° West 411 473 36,000  Level Minneapolis Center
Sat 12:09:48 PM 45.7253 -98.6028 284° West 411 473 36,000  Level Minneapolis Center
Sat 12:10:49 PM 45.7539 -98.7611 285° West 412 474 36,000  Level Minneapolis Center
Sat 12:11:51 PM 45.7822 -98.9211 284° West 414 476 36,000  Level Minneapolis Center
Sat 12:12:53 PM 45.8158 -99.1097 284° West 411 473 36,000  Level Minneapolis Center
Sat 12:13:54 PM 45.8439 -99.2661 284° West 408 470 36,000  Level Minneapolis Center
Sat 12:14:56 PM 45.8706 -99.4247 284° West 410 472 36,000  Level Minneapolis Center
Sat 12:15:57 PM 45.8925 -99.5522 284° West 411 473 36,000  Level Minneapolis Center
Sat 12:16:59 PM 45.9258 -99.7433 284° West 412 474 36,000  Level Minneapolis Center
Sat 12:18:01 PM 45.9525 -99.9028 284° West 413 475 36,000  Level Minneapolis Center
Sat 12:19:03 PM 45.9842 -100.0933 284° West 411 473 36,000  Level Minneapolis Center
Sat 12:20:04 PM 46.0114 -100.2556 284° West 417 480 36,000  Level Minneapolis Center
Sat 12:21:18 PM 46.0369 -100.4147 283° West 412 474 36,000  Level Minneapolis Center
Sat 12:22:20 PM 46.0678 -100.6031 283° West 406 467 36,000  Level Minneapolis Center
Sat 12:23:21 PM 46.0942 -100.7622 283° West 408 470 36,000  Level Minneapolis Center
Sat 12:24:23 PM 46.1192 -100.9233 283° West 412 474 36,000  Level Minneapolis Center
Sat 12:25:25 PM 46.1444 -101.0831 283° West 412 474 36,000  Level Minneapolis Center
Sat 12:26:26 PM 46.1758 -101.2781 283° West 414 476 36,000  Level Minneapolis Center
Sat 12:27:28 PM 46.1997 -101.4408 282° West 416 479 36,000  Level Minneapolis Center
Sat 12:28:30 PM 46.2258 -101.6036 283° West 416 479 36,000  Level Minneapolis Center
Sat 12:29:44 PM 46.2511 -101.7650 283° West 414 476 36,000  Level Minneapolis Center
Sat 12:30:46 PM 46.2800 -101.9608 282° West 416 479 36,000 -49 Level Minneapolis Center
Sat 12:31:47 PM 46.3069 -102.1344 283° West 413 475 35,900 -49 Descending Minneapolis Center
Sat 12:32:49 PM 46.3311 -102.2939 282° West 408 470 35,900  Level Minneapolis Center
Sat 12:33:51 PM 46.3556 -102.4522 283° West 406 467 35,900  Level Minneapolis Center
Sat 12:34:52 PM 46.3775 -102.6167 281° West 412 474 35,900  Level Minneapolis Center
Sat 12:36:06 PM 46.4044 -102.8103 281° West 409 471 35,900 44 Level Minneapolis Center
Sat 12:37:08 PM 46.4311 -103.0047 281° West 410 472 36,000  Climbing Minneapolis Center
Sat 12:38:00 PM 46.4475 -103.1347 280° West 409 471 35,900  Descending Salt Lake Center
Sat 12:39:01 PM 46.4683 -103.2950 281° West 408 470 36,000  Climbing Salt Lake Center
Sat 12:40:03 PM 46.4903 -103.4556 281° West 407 468 35,900  Descending Salt Lake Center
Sat 12:41:04 PM 46.5122 -103.6156 281° West 406 467 36,000 49 Climbing Salt Lake Center
Sat 12:42:06 PM 46.5336 -103.7783 281° West 406 467 36,000 -49 Level Salt Lake Center
Sat 12:43:07 PM 46.5539 -103.9381 281° West 406 467 35,900  Descending Salt Lake Center
Sat 12:44:09 PM 46.5742 -104.0975 281° West 404 465 36,000  Climbing Salt Lake Center
Sat 12:45:10 PM 46.5986 -104.2889 281° West 401 461 35,900 -49 Descending Salt Lake Center
Sat 12:46:12 PM 46.6189 -104.4508 280° West 405 466 35,900  Level Salt Lake Center
Sat 12:47:13 PM 46.6389 -104.6128 280° West 406 467 35,900  Level Salt Lake Center
Sat 12:48:14 PM 46.6583 -104.7747 280° West 407 468 35,900  Level Salt Lake Center
Sat 12:49:16 PM 46.6775 -104.9342 280° West 403 464 35,900  Level Salt Lake Center
Sat 12:50:17 PM 46.6969 -105.0928 280° West 399 459 35,900  Level Salt Lake Center
Sat 12:51:19 PM 46.7156 -105.2508 280° West 398 458 35,900  Level Salt Lake Center
Sat 12:52:20 PM 46.7342 -105.4122 280° West 401 461 35,900 49 Level Salt Lake Center
Sat 12:53:22 PM 46.7567 -105.5906 280° West 403 464 36,000 49 Climbing Salt Lake Center
Sat 12:54:23 PM 46.7767 -105.7717 279° West 405 466 36,000  Level Salt Lake Center
Sat 12:55:24 PM 46.7958 -105.9294 280° West 409 471 36,000  Level Salt Lake Center
Sat 12:56:26 PM 46.8136 -106.0883 279° West 411 473 36,000  Level Salt Lake Center
Sat 12:57:27 PM 46.8333 -106.2733 279° West 412 474 36,000  Level Salt Lake Center
Sat 12:58:28 PM 46.8508 -106.4314 279° West 412 474 36,000  Level Salt Lake Center
Sat 12:59:30 PM 46.8700 -106.6161 279° West 411 473 36,000  Level Salt Lake Center
Sat 01:00:31 PM 46.8869 -106.7775 279° West 416 479 36,000  Level Salt Lake Center
Sat 01:01:32 PM 46.9039 -106.9344 279° West 412 474 36,000  Level Salt Lake Center
Sat 01:02:34 PM 46.9219 -107.1181 278° West 410 472 36,000  Level Salt Lake Center
Sat 01:03:35 PM 46.9381 -107.2756 279° West 410 472 36,000 -443 Level Salt Lake Center
Sat 01:04:36 PM 46.9556 -107.4578 278° West 407 468 35,100 -976 Descending Salt Lake Center
Sat 01:05:38 PM 46.9706 -107.6083 278° West 396 456 34,000 -537 Descending Salt Lake Center
Sat 01:06:39 PM 46.9853 -107.7531 279° West 382 440 34,000 -49 Level Salt Lake Center
Sat 01:07:40 PM 47.0006 -107.9300 277° West 391 450 33,900 -878 Descending Salt Lake Center
Sat 01:08:42 PM 47.0144 -108.0747 278° West 381 438 32,200 -1,122 Descending Salt Lake Center
Sat 01:09:43 PM 47.0308 -108.2539 278° West 395 455 31,600 -934 Descending Salt Lake Center
Sat 01:10:44 PM 47.0442 -108.4061 277° West 395 455 30,300 -787 Descending Salt Lake Center
Sat 01:11:45 PM 47.0572 -108.5578 277° West 394 453 30,000 -146 Descending Salt Lake Center
Sat 01:12:47 PM 47.0731 -108.7367 277° West 396 456 30,000  Level Salt Lake Center
Sat 01:13:48 PM 47.0864 -108.8875 277° West 392 451 30,000  Level Salt Lake Center
Sat 01:14:49 PM 47.1006 -109.0308 278° West 387 445 30,000  Level Salt Lake Center
Sat 01:15:50 PM 47.1133 -109.1994 276° West 399 459 30,000 -49 Level Salt Lake Center
Sat 01:16:52 PM 47.1275 -109.3936 276° West 400 460 29,900 -49 Descending Salt Lake Center
Sat 01:17:53 PM 47.1403 -109.5536 277° West 397 457 29,900  Level Salt Lake Center
Sat 01:18:54 PM 47.1531 -109.7114 277° West 392 451 29,900 49 Level Salt Lake Center
Sat 01:19:56 PM 47.1664 -109.8703 277° West 393 452 30,000 49 Climbing Salt Lake Center
Sat 01:20:57 PM 47.1786 -110.0322 276° West 396 456 30,000 -49 Level Salt Lake Center
Sat 01:21:58 PM 47.1894 -110.1897 276° West 393 452 29,900 732 Descending Salt Lake Center
Sat 01:23:00 PM 47.1997 -110.3458 276° West 387 445 31,500 976 Climbing Salt Lake Center
Sat 01:24:01 PM 47.2108 -110.5000 276° West 381 438 31,900 787 Climbing Salt Lake Center
Sat 01:25:02 PM 47.2217 -110.6544 276° West 380 437 33,100 976 Climbing Salt Lake Center
Sat 01:26:04 PM 47.2328 -110.8075 276° West 377 434 33,900 390 Climbing Salt Lake Center
Sat 01:27:05 PM 47.2439 -110.9886 275° West 371 427 33,900 49 Level Salt Lake Center
Sat 01:28:07 PM 47.2531 -111.1417 275° West 371 427 34,000 49 Climbing Salt Lake Center
Sat 01:29:08 PM 47.2631 -111.2992 275° West 380 437 34,000  Level Salt Lake Center
Sat 01:30:09 PM 47.2736 -111.4583 276° West 386 444 34,000 -49 Level Salt Lake Center
Sat 01:31:11 PM 47.2833 -111.6156 275° West 385 443 33,900 -49 Descending Salt Lake Center
Sat 01:32:12 PM 47.2925 -111.7725 275° West 384 442 33,900  Level Salt Lake Center
Sat 01:33:14 PM 47.3014 -111.9294 275° West 383 441 33,900  Level Salt Lake Center
Sat 01:34:15 PM 47.3108 -112.0861 275° West 384 442 33,900  Level Salt Lake Center
Sat 01:35:17 PM 47.3192 -112.2444 274° West 386 444 33,900  Level Salt Lake Center
Sat 01:36:18 PM 47.3286 -112.4017 275° West 386 444 33,900  Level Salt Lake Center
Sat 01:37:20 PM 47.3367 -112.5597 274° West 389 448 33,900  Level Salt Lake Center
Sat 01:38:21 PM 47.3456 -112.7517 274° West 390 449 33,900  Level Salt Lake Center
Sat 01:39:23 PM 47.3539 -112.9092 275° West 389 448 33,900  Level Salt Lake Center
Sat 01:40:24 PM 47.3617 -113.0597 274° West 375 432 33,900  Level Salt Lake Center
Sat 01:41:26 PM 47.3681 -113.2106 274° West 371 427 33,900  Level Salt Lake Center
Sat 01:42:27 PM 47.3761 -113.3653 274° West 377 434 33,900  Level Salt Lake Center
Sat 01:43:29 PM 47.3825 -113.5197 274° West 378 435 33,900  Level Salt Lake Center
Sat 01:44:31 PM 47.3889 -113.6708 274° West 370 426 33,900  Level Salt Lake Center
Sat 01:45:32 PM 47.3958 -113.8258 274° West 377 434 33,900  Level Salt Lake Center
Sat 01:46:34 PM 47.4036 -114.0133 274° West 380 437 33,900  Level Salt Lake Center
Sat 01:47:35 PM 47.4094 -114.1650 273° West 373 429 33,900  Level Salt Lake Center
Sat 01:48:37 PM 47.4150 -114.3211 273° West 379 436 33,900  Level Salt Lake Center
Sat 01:49:39 PM 47.4211 -114.4764 273° West 378 435 33,900  Level Salt Lake Center
Sat 01:50:40 PM 47.4272 -114.6322 273° West 380 437 33,900  Level Salt Lake Center
Sat 01:51:13 PM 47.4306 -114.7286 273° West 381 438 33,900  Level Seattle Center
Sat 01:52:14 PM 47.4356 -114.8861 273° West 383 441 33,900  Level Seattle Center
Sat 01:53:15 PM 47.4406 -115.0414 273° West 380 437 33,900  Level Seattle Center
Sat 01:54:16 PM 47.4444 -115.1961 272° West 378 435 33,900  Level Seattle Center
Sat 01:55:16 PM 47.4489 -115.3503 272° West 376 433 33,900  Level Seattle Center
Sat 01:56:17 PM 47.4531 -115.5047 272° West 377 434 33,900  Level Seattle Center
Sat 01:57:18 PM 47.4572 -115.6586 272° West 376 433 33,900  Level Seattle Center
Sat 01:58:19 PM 47.4661 -115.8106 275° West 378 435 33,900  Level Seattle Center
Sat 01:59:20 PM 47.4756 -115.9633 275° West 376 433 33,900  Level Seattle Center
Sat 02:00:21 PM 47.4844 -116.1147 275° West 371 427 33,900  Level Seattle Center
Sat 02:01:22 PM 47.4936 -116.2683 275° West 376 433 33,900  Level Seattle Center
Sat 02:02:22 PM 47.5019 -116.4208 275° West 373 429 33,900  Level Seattle Center
Sat 02:03:23 PM 47.5128 -116.6056 275° West 374 430 33,900  Level Seattle Center
Sat 02:04:24 PM 47.5214 -116.7578 275° West 373 429 33,900  Level Seattle Center
Sat 02:05:25 PM 47.5294 -116.9097 275° West 372 428 33,900  Level Seattle Center
Sat 02:06:26 PM 47.5378 -117.0664 275° West 375 432 33,900 49 Level Seattle Center
Sat 02:07:27 PM 47.5442 -117.1992 274° West 376 433 34,000  Climbing Seattle Center
Sat 02:08:28 PM 47.5519 -117.3528 274° West 374 430 33,900 -49 Descending Seattle Center
Sat 02:09:29 PM 47.5608 -117.5378 274° West 375 432 33,900  Level Seattle Center
Sat 02:10:30 PM 47.5700 -117.6906 275° West 374 430 33,900  Level Seattle Center
Sat 02:11:30 PM 47.5864 -117.8433 279° West 375 432 33,900  Level Seattle Center
Sat 02:12:31 PM 47.6008 -117.9947 278° West 374 430 33,900  Level Seattle Center
Sat 02:13:32 PM 47.6153 -118.1464 278° West 373 429 33,900 49 Level Seattle Center
Sat 02:14:33 PM 47.6294 -118.2997 278° West 375 432 34,000  Climbing Seattle Center
Sat 02:15:34 PM 47.6422 -118.4503 277° West 372 428 33,900 -49 Descending Seattle Center
Sat 02:16:35 PM 47.6536 -118.6008 276° West 370 426 33,900  Level Seattle Center
Sat 02:17:36 PM 47.6683 -118.7542 278° West 374 430 33,900 49 Level Seattle Center
Sat 02:18:37 PM 47.6811 -118.9044 277° West 370 426 34,000  Climbing Seattle Center
Sat 02:19:38 PM 47.6928 -119.0589 276° West 376 433 33,900 -49 Descending Seattle Center
Sat 02:20:39 PM 47.7064 -119.2114 278° West 374 430 33,900  Level Seattle Center
Sat 02:21:40 PM 47.7194 -119.3686 277° West 381 438 33,900  Level Seattle Center
Sat 02:22:40 PM 47.7317 -119.5250 277° West 383 441 33,900  Level Seattle Center
Sat 02:23:41 PM 47.7464 -119.7119 277° West 380 437 33,900  Level Seattle Center
Sat 02:24:42 PM 47.7581 -119.8686 276° West 382 440 33,900  Level Seattle Center
Sat 02:25:43 PM 47.7706 -120.0250 277° West 384 442 33,900  Level Seattle Center
Sat 02:26:44 PM 47.7814 -120.1786 276° West 377 434 33,900 -197 Level Seattle Center
Sat 02:27:45 PM 47.7922 -120.3319 276° West 375 432 33,500 -689 Descending Seattle Center
Sat 02:28:46 PM 47.8036 -120.4892 276° West 383 441 32,500 -934 Descending Seattle Center
Sat 02:29:47 PM 47.8150 -120.6481 276° West 387 445 31,600 -1,672 Descending Seattle Center
Sat 02:30:48 PM 47.8269 -120.8022 277° West 378 435 29,100 -3,148 Descending Seattle Center
Sat 02:31:49 PM 47.8386 -120.9731 276° West 385 443 25,200 -3,738 Descending Seattle Center
Sat 02:32:50 PM 47.8497 -121.1314 276° West 389 448 21,500 -3,698 Descending Seattle Center
Sat 02:33:15 PM 47.8556 -121.2019 277° West 389 448 19,900 -3,443 Descending Seattle Center
Sat 02:33:51 PM 47.8606 -121.2858 275° West 381 438 18,000 -3,400 Descending Seattle Center
Sat 02:34:15 PM 47.8650 -121.3658 275° West 365 420 16,500 -2,951 Descending Seattle Center
Sat 02:34:52 PM 47.8689 -121.4283 275° West 351 404 15,000 -2,852 Descending Seattle Center
Sat 02:35:16 PM 47.8739 -121.5033 276° West 329 379 13,600 -1,900 Descending Seattle Center
Sat 02:35:52 PM 47.8769 -121.5600 275° West 325 374 13,100 -1,475 Descending Seattle Center
Sat 02:36:17 PM 47.8817 -121.6281 276° West 302 348 12,100 -1,475 Descending Seattle Center
Sat 02:36:53 PM 47.8769 -121.6806 262° West 300 345 11,600 -984 Descending Seattle Center
Sat 02:37:18 PM 47.8661 -121.7497 257° West 296 341 11,100 -1,180 Descending Seattle Center
Sat 02:37:54 PM 47.8561 -121.8217 258° West 293 337 10,400 -984 Descending Seattle Center
Sat 02:38:19 PM 47.8503 -121.8614 258° West 276 318 10,100 -1,180 Descending Seattle Center
Sat 02:38:55 PM 47.8417 -121.9222 258° West 254 292 9,200 -1,770 Descending Seattle Center
Sat 02:39:20 PM 47.8364 -121.9717 261° West 246 283 8,300 -1,672 Descending Seattle Center
Sat 02:39:56 PM 47.8225 -122.0217 248° West 254 292 7,500 -1,475 Descending Seattle Center
Sat 02:40:21 PM 47.8100 -122.0692 249° West 255 293 6,800 -1,475 Descending Seattle Center
Sat 02:40:57 PM 47.7956 -122.1211 248° West 256 295 6,000 -1,377 Descending Seattle Center
Sat 02:41:22 PM 47.7833 -122.1667 248° West 247 284 5,400 -1,000 Descending Seattle Center
Sat 02:41:57 PM 47.7572 -122.2117 229° Southwest 243 280 5,000 -393 Descending Seattle Center
Sat 02:42:23 PM 47.7378 -122.2414 226° Southwest 248 285 5,000  Level Seattle Center
Sat 02:42:58 PM 47.7056 -122.2767 216° Southwest 246 283 5,000  Level Seattle Center
Sat 02:43:24 PM 47.6825 -122.2953 209° Southwest 243 280 5,000 -885 Level Seattle Center
Sat 02:43:59 PM 47.6458 -122.3172 202° Southwest 239 275 4,100 -1,475 Descending Seattle Center
Sat 02:44:25 PM 47.6192 -122.3172 180° South 244 281 3,500 -1,180 Descending Seattle Center
Sat 02:45:00 PM 47.5781 -122.3158 179° South 242 278 2,900 -1,200 Descending Seattle Center
Sat 02:45:25 PM 47.5547 -122.3167 181° South 198 228 2,300 -1,440 Descending Seattle Center

Login

Don't have an account? Register now (free) for customized features, flight alerts, and more!